sensor_id;sensor_type;location;lat;lon;timestamp;pressure;altitude;pressure_sealevel;temperature;humidity
38912;BME280;28444;48.056;14.408;2024-02-21T00:00:32;98579.41;;;6.07;76.35
38912;BME280;28444;48.056;14.408;2024-02-21T00:14:20;98572.28;;;5.98;76.02
38912;BME280;28444;48.056;14.408;2024-02-21T00:16:48;98571.28;;;6.01;75.87
38912;BME280;28444;48.056;14.408;2024-02-21T00:19:15;98564.84;;;6.05;75.81
38912;BME280;28444;48.056;14.408;2024-02-21T00:21:41;98570.03;;;6.02;76.28
38912;BME280;28444;48.056;14.408;2024-02-21T00:24:08;98565.09;;;6.07;76.11
38912;BME280;28444;48.056;14.408;2024-02-21T00:26:35;98568.34;;;5.99;74.64
38912;BME280;28444;48.056;14.408;2024-02-21T00:29:01;98565.63;;;5.99;75.51
38912;BME280;28444;48.056;14.408;2024-02-21T00:31:31;98563.41;;;5.98;74.82
38912;BME280;28444;48.056;14.408;2024-02-21T00:33:57;98568.06;;;6.03;75.88
38912;BME280;28444;48.056;14.408;2024-02-21T00:36:24;98567.84;;;6.01;74.41
38912;BME280;28444;48.056;14.408;2024-02-21T00:38:51;98558.69;;;6.04;75.04
38912;BME280;28444;48.056;14.408;2024-02-21T00:41:17;98556.41;;;6.08;75.24
38912;BME280;28444;48.056;14.408;2024-02-21T00:43:44;98549.00;;;6.09;75.32
38912;BME280;28444;48.056;14.408;2024-02-21T00:46:13;98552.72;;;6.06;75.69
38912;BME280;28444;48.056;14.408;2024-02-21T00:48:40;98549.97;;;6.11;75.68
38912;BME280;28444;48.056;14.408;2024-02-21T00:51:07;98552.25;;;6.07;74.85
38912;BME280;28444;48.056;14.408;2024-02-21T00:53:34;98549.25;;;6.11;73.95
38912;BME280;28444;48.056;14.408;2024-02-21T00:56:05;98543.13;;;6.05;75.38
38912;BME280;28444;48.056;14.408;2024-02-21T00:58:32;98542.59;;;6.06;74.86
38912;BME280;28444;48.056;14.408;2024-02-21T01:01:00;98544.31;;;6.09;74.33
38912;BME280;28444;48.056;14.408;2024-02-21T01:03:27;98540.66;;;6.07;75.03
38912;BME280;28444;48.056;14.408;2024-02-21T01:05:53;98537.88;;;6.12;74.17
38912;BME280;28444;48.056;14.408;2024-02-21T01:08:20;98538.59;;;6.13;74.67
38912;BME280;28444;48.056;14.408;2024-02-21T01:10:47;98540.53;;;6.18;73.10
38912;BME280;28444;48.056;14.408;2024-02-21T01:13:14;98530.44;;;6.13;75.24
38912;BME280;28444;48.056;14.408;2024-02-21T01:15:40;98541.84;;;6.11;74.92
38912;BME280;28444;48.056;14.408;2024-02-21T01:18:07;98535.66;;;6.11;74.15
38912;BME280;28444;48.056;14.408;2024-02-21T01:20:34;98530.72;;;6.09;74.42
38912;BME280;28444;48.056;14.408;2024-02-21T01:23:00;98535.94;;;6.07;75.29
38912;BME280;28444;48.056;14.408;2024-02-21T01:25:27;98533.22;;;6.07;75.08
38912;BME280;28444;48.056;14.408;2024-02-21T01:27:54;98527.28;;;6.09;73.83
38912;BME280;28444;48.056;14.408;2024-02-21T01:30:20;98525.53;;;6.11;74.51
38912;BME280;28444;48.056;14.408;2024-02-21T01:32:47;98536.34;;;6.17;76.11
38912;BME280;28444;48.056;14.408;2024-02-21T01:35:14;98535.09;;;6.18;76.28
38912;BME280;28444;48.056;14.408;2024-02-21T01:37:41;98526.78;;;6.10;76.67
38912;BME280;28444;48.056;14.408;2024-02-21T01:40:08;98520.88;;;6.06;76.15
38912;BME280;28444;48.056;14.408;2024-02-21T01:42:38;98521.41;;;6.05;76.24
38912;BME280;28444;48.056;14.408;2024-02-21T01:45:06;98514.50;;;6.03;75.20
38912;BME280;28444;48.056;14.408;2024-02-21T01:47:33;98516.22;;;6.07;75.25
38912;BME280;28444;48.056;14.408;2024-02-21T01:50:01;98511.44;;;6.13;75.36
38912;BME280;28444;48.056;14.408;2024-02-21T01:52:29;98510.94;;;6.14;75.53
38912;BME280;28444;48.056;14.408;2024-02-21T01:54:57;98506.25;;;6.15;74.89
38912;BME280;28444;48.056;14.408;2024-02-21T01:57:24;98504.88;;;6.02;76.24
38912;BME280;28444;48.056;14.408;2024-02-21T01:59:52;98497.25;;;6.01;75.89
38912;BME280;28444;48.056;14.408;2024-02-21T02:02:18;98513.25;;;6.05;75.43
38912;BME280;28444;48.056;14.408;2024-02-21T02:04:45;98496.72;;;6.02;74.88
38912;BME280;28444;48.056;14.408;2024-02-21T02:07:12;98495.50;;;6.03;75.24
38912;BME280;28444;48.056;14.408;2024-02-21T02:09:39;98490.34;;;6.00;75.29
38912;BME280;28444;48.056;14.408;2024-02-21T02:12:06;98494.47;;;6.07;75.64
38912;BME280;28444;48.056;14.408;2024-02-21T02:14:33;98494.00;;;6.02;76.00
38912;BME280;28444;48.056;14.408;2024-02-21T02:17:00;98490.00;;;6.09;75.27
38912;BME280;28444;48.056;14.408;2024-02-21T02:19:26;98487.06;;;6.07;76.00
38912;BME280;28444;48.056;14.408;2024-02-21T02:22:00;98491.53;;;6.05;75.49
38912;BME280;28444;48.056;14.408;2024-02-21T02:24:28;98493.72;;;6.06;75.60
38912;BME280;28444;48.056;14.408;2024-02-21T02:26:55;98491.00;;;6.06;75.23
38912;BME280;28444;48.056;14.408;2024-02-21T02:29:23;98487.06;;;6.07;74.64
38912;BME280;28444;48.056;14.408;2024-02-21T02:31:50;98475.91;;;6.11;74.61
38912;BME280;28444;48.056;14.408;2024-02-21T02:34:16;98464.66;;;6.01;75.96
38912;BME280;28444;48.056;14.408;2024-02-21T02:36:43;98467.38;;;6.01;74.54
38912;BME280;28444;48.056;14.408;2024-02-21T02:39:10;98461.94;;;6.01;75.90
38912;BME280;28444;48.056;14.408;2024-02-21T02:41:36;98455.78;;;6.00;74.34
38912;BME280;28444;48.056;14.408;2024-02-21T02:44:03;98454.47;;;6.07;73.83
38912;BME280;28444;48.056;14.408;2024-02-21T02:46:30;98448.75;;;6.11;73.26
38912;BME280;28444;48.056;14.408;2024-02-21T02:48:57;98449.03;;;6.07;73.03
38912;BME280;28444;48.056;14.408;2024-02-21T02:51:23;98449.78;;;6.08;72.83
38912;BME280;28444;48.056;14.408;2024-02-21T02:53:50;98442.88;;;6.07;73.08
38912;BME280;28444;48.056;14.408;2024-02-21T02:56:17;98443.81;;;6.09;73.12
38912;BME280;28444;48.056;14.408;2024-02-21T02:58:44;98443.63;;;6.07;74.05
38912;BME280;28444;48.056;14.408;2024-02-21T03:01:10;98440.63;;;6.11;72.78
38912;BME280;28444;48.056;14.408;2024-02-21T03:03:37;98440.09;;;6.12;73.69
38912;BME280;28444;48.056;14.408;2024-02-21T03:06:04;98435.84;;;6.17;72.80
38912;BME280;28444;48.056;14.408;2024-02-21T03:08:31;98439.31;;;6.17;74.27
38912;BME280;28444;48.056;14.408;2024-02-21T03:10:59;98434.81;;;6.20;73.94
38912;BME280;28444;48.056;14.408;2024-02-21T03:13:26;98430.69;;;6.13;73.93
38912;BME280;28444;48.056;14.408;2024-02-21T03:15:53;98435.25;;;6.24;72.81
38912;BME280;28444;48.056;14.408;2024-02-21T03:18:20;98430.06;;;6.26;72.56
38912;BME280;28444;48.056;14.408;2024-02-21T03:20:47;98428.38;;;6.23;74.38
38912;BME280;28444;48.056;14.408;2024-02-21T03:23:13;98421.19;;;6.25;73.48
38912;BME280;28444;48.056;14.408;2024-02-21T03:25:40;98431.31;;;6.25;74.03
38912;BME280;28444;48.056;14.408;2024-02-21T03:28:07;98424.34;;;6.30;74.30
38912;BME280;28444;48.056;14.408;2024-02-21T03:30:34;98428.25;;;6.34;72.91
38912;BME280;28444;48.056;14.408;2024-02-21T03:33:02;98430.22;;;6.34;73.58
38912;BME280;28444;48.056;14.408;2024-02-21T03:35:29;98427.06;;;6.30;72.60
38912;BME280;28444;48.056;14.408;2024-02-21T03:37:56;98425.31;;;6.32;73.80
38912;BME280;28444;48.056;14.408;2024-02-21T03:40:22;98420.09;;;6.34;73.53
38912;BME280;28444;48.056;14.408;2024-02-21T03:42:49;98422.81;;;6.34;75.87
38912;BME280;28444;48.056;14.408;2024-02-21T03:45:16;98423.91;;;6.25;74.52
38912;BME280;28444;48.056;14.408;2024-02-21T03:47:43;98419.22;;;6.26;73.66
38912;BME280;28444;48.056;14.408;2024-02-21T03:50:10;98411.78;;;6.26;73.87
38912;BME280;28444;48.056;14.408;2024-02-21T03:52:37;98412.59;;;6.21;74.49
38912;BME280;28444;48.056;14.408;2024-02-21T03:55:04;98412.16;;;6.17;74.73
38912;BME280;28444;48.056;14.408;2024-02-21T03:57:30;98412.44;;;6.14;74.57
38912;BME280;28444;48.056;14.408;2024-02-21T03:59:57;98411.88;;;6.21;73.73
38912;BME280;28444;48.056;14.408;2024-02-21T04:02:24;98411.34;;;6.22;73.95
38912;BME280;28444;48.056;14.408;2024-02-21T04:04:50;98403.13;;;6.28;74.66
38912;BME280;28444;48.056;14.408;2024-02-21T04:07:17;98403.41;;;6.24;73.81
38912;BME280;28444;48.056;14.408;2024-02-21T04:09:44;98397.97;;;6.24;74.50
38912;BME280;28444;48.056;14.408;2024-02-21T04:12:10;98405.81;;;6.28;74.40
38912;BME280;28444;48.056;14.408;2024-02-21T04:14:37;98394.03;;;6.25;74.79
38912;BME280;28444;48.056;14.408;2024-02-21T04:17:08;98399.47;;;6.25;74.07
38912;BME280;28444;48.056;14.408;2024-02-21T04:19:35;98395.78;;;6.23;74.12
38912;BME280;28444;48.056;14.408;2024-02-21T04:22:02;98399.75;;;6.22;74.39
38912;BME280;28444;48.056;14.408;2024-02-21T04:24:28;98399.50;;;6.20;73.93
38912;BME280;28444;48.056;14.408;2024-02-21T04:26:55;98399.50;;;6.20;74.22
38912;BME280;28444;48.056;14.408;2024-02-21T04:29:21;98403.03;;;6.15;74.67
38912;BME280;28444;48.056;14.408;2024-02-21T04:31:48;98396.78;;;6.20;74.13
38912;BME280;28444;48.056;14.408;2024-02-21T04:34:15;98397.81;;;6.17;74.06
38912;BME280;28444;48.056;14.408;2024-02-21T04:36:42;98395.56;;;6.21;74.28
38912;BME280;28444;48.056;14.408;2024-02-21T04:39:10;98387.19;;;6.19;73.93
38912;BME280;28444;48.056;14.408;2024-02-21T04:41:37;98394.38;;;6.16;74.09
38912;BME280;28444;48.056;14.408;2024-02-21T04:44:04;98377.13;;;6.14;73.87
38912;BME280;28444;48.056;14.408;2024-02-21T04:46:31;98385.78;;;6.12;74.35
38912;BME280;28444;48.056;14.408;2024-02-21T04:48:58;98388.28;;;6.10;75.04
38912;BME280;28444;48.056;14.408;2024-02-21T04:51:24;98373.16;;;6.15;74.70
38912;BME280;28444;48.056;14.408;2024-02-21T04:53:51;98376.09;;;6.17;74.28
38912;BME280;28444;48.056;14.408;2024-02-21T04:56:17;98378.16;;;6.11;74.17
38912;BME280;28444;48.056;14.408;2024-02-21T04:58:44;98367.78;;;6.09;74.43
38912;BME280;28444;48.056;14.408;2024-02-21T05:01:14;98376.47;;;6.08;74.76
38912;BME280;28444;48.056;14.408;2024-02-21T05:03:40;98376.22;;;6.06;75.71
38912;BME280;28444;48.056;14.408;2024-02-21T05:06:07;98368.50;;;6.10;75.45
38912;BME280;28444;48.056;14.408;2024-02-21T05:08:34;98373.50;;;6.06;74.61
38912;BME280;28444;48.056;14.408;2024-02-21T05:11:01;98365.59;;;6.08;75.26
38912;BME280;28444;48.056;14.408;2024-02-21T05:13:27;98374.75;;;6.05;74.88
38912;BME280;28444;48.056;14.408;2024-02-21T05:15:54;98373.50;;;6.06;74.87
38912;BME280;28444;48.056;14.408;2024-02-21T05:18:21;98369.63;;;6.01;75.31
38912;BME280;28444;48.056;14.408;2024-02-21T05:20:48;98373.94;;;6.10;74.56
38912;BME280;28444;48.056;14.408;2024-02-21T05:23:14;98369.56;;;6.07;75.28
38912;BME280;28444;48.056;14.408;2024-02-21T05:25:41;98363.56;;;6.14;74.79
38912;BME280;28444;48.056;14.408;2024-02-21T05:28:07;98363.84;;;6.10;74.93
38912;BME280;28444;48.056;14.408;2024-02-21T05:30:34;98360.56;;;6.17;74.29
38912;BME280;28444;48.056;14.408;2024-02-21T05:33:07;98356.63;;;6.13;74.87
38912;BME280;28444;48.056;14.408;2024-02-21T05:35:35;98353.13;;;6.18;74.93
38912;BME280;28444;48.056;14.408;2024-02-21T05:38:02;98353.63;;;6.16;74.14
38912;BME280;28444;48.056;14.408;2024-02-21T05:40:37;98351.44;;;6.15;75.33
38912;BME280;28444;48.056;14.408;2024-02-21T05:43:04;98343.00;;;6.18;75.42
38912;BME280;28444;48.056;14.408;2024-02-21T05:45:31;98342.03;;;6.16;74.55
38912;BME280;28444;48.056;14.408;2024-02-21T05:47:58;98344.03;;;6.15;74.96
38912;BME280;28444;48.056;14.408;2024-02-21T05:50:25;98339.59;;;6.12;75.05
38912;BME280;28444;48.056;14.408;2024-02-21T05:52:54;98342.84;;;6.11;75.46
38912;BME280;28444;48.056;14.408;2024-02-21T05:55:22;98333.44;;;6.12;74.79
38912;BME280;28444;48.056;14.408;2024-02-21T05:57:49;98338.34;;;6.13;75.15
38912;BME280;28444;48.056;14.408;2024-02-21T06:00:16;98337.63;;;6.13;75.50
38912;BME280;28444;48.056;14.408;2024-02-21T06:02:43;98340.63;;;6.09;75.17
38912;BME280;28444;48.056;14.408;2024-02-21T06:05:09;98345.03;;;6.12;75.71
38912;BME280;28444;48.056;14.408;2024-02-21T06:07:36;98340.56;;;6.15;75.10
38912;BME280;28444;48.056;14.408;2024-02-21T06:10:03;98338.06;;;6.17;75.94
38912;BME280;28444;48.056;14.408;2024-02-21T06:12:30;98344.25;;;6.17;75.25
38912;BME280;28444;48.056;14.408;2024-02-21T06:14:57;98330.16;;;6.19;74.80
38912;BME280;28444;48.056;14.408;2024-02-21T06:17:23;98333.31;;;6.23;74.05
38912;BME280;28444;48.056;14.408;2024-02-21T06:19:50;98332.34;;;6.20;75.59
38912;BME280;28444;48.056;14.408;2024-02-21T06:22:17;98336.25;;;6.25;75.16
38912;BME280;28444;48.056;14.408;2024-02-21T06:24:43;98332.72;;;6.30;74.98
38912;BME280;28444;48.056;14.408;2024-02-21T06:27:11;98327.72;;;6.34;76.73
38912;BME280;28444;48.056;14.408;2024-02-21T06:29:37;98321.25;;;6.37;75.15
38912;BME280;28444;48.056;14.408;2024-02-21T06:32:04;98325.16;;;6.42;76.39
38912;BME280;28444;48.056;14.408;2024-02-21T06:34:31;98320.25;;;6.40;76.73
38912;BME280;28444;48.056;14.408;2024-02-21T06:37:00;98314.56;;;6.38;77.44
38912;BME280;28444;48.056;14.408;2024-02-21T06:39:27;98319.50;;;6.40;77.19
38912;BME280;28444;48.056;14.408;2024-02-21T06:41:55;98327.78;;;6.47;77.19
38912;BME280;28444;48.056;14.408;2024-02-21T06:44:27;98317.44;;;6.46;76.33
38912;BME280;28444;48.056;14.408;2024-02-21T06:46:54;98323.09;;;6.48;76.61
38912;BME280;28444;48.056;14.408;2024-02-21T06:49:21;98328.97;;;6.52;77.85
38912;BME280;28444;48.056;14.408;2024-02-21T06:51:49;98324.69;;;6.57;76.93
38912;BME280;28444;48.056;14.408;2024-02-21T06:54:16;98325.41;;;6.57;77.86
38912;BME280;28444;48.056;14.408;2024-02-21T06:56:43;98322.09;;;6.64;77.40
38912;BME280;28444;48.056;14.408;2024-02-21T06:59:09;98315.94;;;6.64;76.50
38912;BME280;28444;48.056;14.408;2024-02-21T07:01:37;98316.59;;;6.70;75.52
38912;BME280;28444;48.056;14.408;2024-02-21T07:04:04;98311.38;;;6.72;77.11
38912;BME280;28444;48.056;14.408;2024-02-21T07:06:30;98311.38;;;6.72;74.76
38912;BME280;28444;48.056;14.408;2024-02-21T07:09:01;98321.44;;;6.77;77.32
38912;BME280;28444;48.056;14.408;2024-02-21T07:11:28;98322.28;;;6.85;76.68
38912;BME280;28444;48.056;14.408;2024-02-21T07:13:54;98312.91;;;6.86;75.27
38912;BME280;28444;48.056;14.408;2024-02-21T07:16:21;98313.09;;;6.88;73.15
38912;BME280;28444;48.056;14.408;2024-02-21T07:18:48;98311.03;;;6.94;74.75
38912;BME280;28444;48.056;14.408;2024-02-21T07:21:15;98307.69;;;7.02;73.32
38912;BME280;28444;48.056;14.408;2024-02-21T07:23:42;98310.75;;;7.11;73.86
38912;BME280;28444;48.056;14.408;2024-02-21T07:26:09;98315.16;;;7.14;72.42
38912;BME280;28444;48.056;14.408;2024-02-21T07:28:35;98305.75;;;7.15;71.91
38912;BME280;28444;48.056;14.408;2024-02-21T07:31:02;98311.50;;;7.25;72.00
38912;BME280;28444;48.056;14.408;2024-02-21T07:33:29;98315.69;;;7.26;71.80
38912;BME280;28444;48.056;14.408;2024-02-21T07:35:57;98308.59;;;7.23;72.63
38912;BME280;28444;48.056;14.408;2024-02-21T07:38:23;98298.44;;;7.37;71.76
38912;BME280;28444;48.056;14.408;2024-02-21T07:40:50;98300.09;;;7.40;71.24
38912;BME280;28444;48.056;14.408;2024-02-21T07:43:17;98296.03;;;7.46;72.57
38912;BME280;28444;48.056;14.408;2024-02-21T07:45:44;98296.66;;;7.53;72.37
38912;BME280;28444;48.056;14.408;2024-02-21T07:48:11;98299.19;;;7.64;69.40
38912;BME280;28444;48.056;14.408;2024-02-21T07:50:37;98289.97;;;7.67;71.39
38912;BME280;28444;48.056;14.408;2024-02-21T07:53:04;98285.97;;;7.68;71.13
38912;BME280;28444;48.056;14.408;2024-02-21T07:55:31;98290.88;;;7.69;71.87
38912;BME280;28444;48.056;14.408;2024-02-21T07:57:58;98296.56;;;7.71;70.26
38912;BME280;28444;48.056;14.408;2024-02-21T08:00:24;98294.97;;;7.76;72.50
38912;BME280;28444;48.056;14.408;2024-02-21T08:02:51;98288.25;;;7.90;68.79
38912;BME280;28444;48.056;14.408;2024-02-21T08:05:18;98283.84;;;7.87;69.88
38912;BME280;28444;48.056;14.408;2024-02-21T08:07:44;98283.84;;;7.87;69.27
38912;BME280;28444;48.056;14.408;2024-02-21T08:10:11;98282.94;;;7.85;69.90
38912;BME280;28444;48.056;14.408;2024-02-21T08:12:38;98278.63;;;8.03;68.36
38912;BME280;28444;48.056;14.408;2024-02-21T08:15:08;98275.88;;;8.03;68.69
38912;BME280;28444;48.056;14.408;2024-02-21T08:17:37;98272.53;;;8.10;68.23
38912;BME280;28444;48.056;14.408;2024-02-21T08:20:04;98271.25;;;8.11;68.23
38912;BME280;28444;48.056;14.408;2024-02-21T08:22:31;98265.19;;;7.91;69.74
38912;BME280;28444;48.056;14.408;2024-02-21T08:24:58;98269.81;;;7.96;71.32
38912;BME280;28444;48.056;14.408;2024-02-21T08:27:26;98270.22;;;8.01;73.56
38912;BME280;28444;48.056;14.408;2024-02-21T08:29:52;98268.97;;;8.02;72.21
38912;BME280;28444;48.056;14.408;2024-02-21T08:32:19;98264.44;;;8.04;73.90
38912;BME280;28444;48.056;14.408;2024-02-21T08:34:45;98259.81;;;8.12;72.86
38912;BME280;28444;48.056;14.408;2024-02-21T08:37:12;98258.03;;;8.15;74.47
38912;BME280;28444;48.056;14.408;2024-02-21T08:39:39;98254.84;;;8.24;74.28
38912;BME280;28444;48.056;14.408;2024-02-21T08:42:05;98253.34;;;8.36;74.65
38912;BME280;28444;48.056;14.408;2024-02-21T08:44:32;98246.41;;;8.49;76.17
38912;BME280;28444;48.056;14.408;2024-02-21T08:46:59;98234.44;;;8.52;74.31
38912;BME280;28444;48.056;14.408;2024-02-21T08:49:31;98232.72;;;8.62;73.78
38912;BME280;28444;48.056;14.408;2024-02-21T08:52:01;98239.34;;;8.74;75.19
38912;BME280;28444;48.056;14.408;2024-02-21T08:54:29;98237.63;;;8.84;74.47
38912;BME280;28444;48.056;14.408;2024-02-21T08:56:56;98227.66;;;8.87;75.00
38912;BME280;28444;48.056;14.408;2024-02-21T08:59:23;98229.78;;;8.81;75.78
38912;BME280;28444;48.056;14.408;2024-02-21T09:01:51;98233.72;;;8.72;76.06
38912;BME280;28444;48.056;14.408;2024-02-21T09:04:19;98226.59;;;8.69;75.45
38912;BME280;28444;48.056;14.408;2024-02-21T09:06:46;98227.88;;;8.68;75.68
38912;BME280;28444;48.056;14.408;2024-02-21T09:09:13;98224.31;;;8.60;75.39
38912;BME280;28444;48.056;14.408;2024-02-21T09:11:39;98229.19;;;8.54;75.93
38912;BME280;28444;48.056;14.408;2024-02-21T09:14:07;98225.19;;;8.55;75.88
38912;BME280;28444;48.056;14.408;2024-02-21T09:16:34;98228.66;;;8.55;76.56
38912;BME280;28444;48.056;14.408;2024-02-21T09:19:00;98231.25;;;8.61;75.49
38912;BME280;28444;48.056;14.408;2024-02-21T09:21:27;98235.09;;;8.65;76.24
38912;BME280;28444;48.056;14.408;2024-02-21T09:23:55;98230.38;;;8.66;76.04
38912;BME280;28444;48.056;14.408;2024-02-21T09:26:25;98222.81;;;8.72;76.21
38912;BME280;28444;48.056;14.408;2024-02-21T09:28:52;98226.72;;;8.84;76.80
38912;BME280;28444;48.056;14.408;2024-02-21T09:31:19;98232.72;;;8.83;76.69
38912;BME280;28444;48.056;14.408;2024-02-21T09:33:46;98233.63;;;8.85;77.02
38912;BME280;28444;48.056;14.408;2024-02-21T09:36:14;98232.38;;;8.86;74.50
38912;BME280;28444;48.056;14.408;2024-02-21T09:38:41;98223.63;;;8.88;73.99
38912;BME280;28444;48.056;14.408;2024-02-21T09:41:18;98222.75;;;8.93;73.63
38912;BME280;28444;48.056;14.408;2024-02-21T09:43:54;98217.63;;;8.89;75.37
38912;BME280;28444;48.056;14.408;2024-02-21T09:51:49;98213.91;;;9.00;72.04
38912;BME280;28444;48.056;14.408;2024-02-21T09:54:17;98220.25;;;8.95;72.88
38912;BME280;28444;48.056;14.408;2024-02-21T09:56:46;98210.59;;;8.94;71.88
38912;BME280;28444;48.056;14.408;2024-02-21T09:59:17;98215.13;;;8.91;72.28
38912;BME280;28444;48.056;14.408;2024-02-21T10:01:44;98222.13;;;8.79;71.70
38912;BME280;28444;48.056;14.408;2024-02-21T10:04:11;98207.56;;;8.77;72.41
38912;BME280;28444;48.056;14.408;2024-02-21T10:06:38;98217.53;;;8.74;72.78
38912;BME280;28444;48.056;14.408;2024-02-21T10:09:06;98212.63;;;8.73;73.53
38912;BME280;28444;48.056;14.408;2024-02-21T10:11:33;98209.94;;;8.80;71.22
38912;BME280;28444;48.056;14.408;2024-02-21T10:14:07;98213.38;;;9.02;73.15
38912;BME280;28444;48.056;14.408;2024-02-21T10:16:35;98207.59;;;9.05;70.14
38912;BME280;28444;48.056;14.408;2024-02-21T10:19:04;98210.78;;;8.96;70.14
38912;BME280;28444;48.056;14.408;2024-02-21T10:21:31;98208.19;;;9.11;71.62
38912;BME280;28444;48.056;14.408;2024-02-21T10:23:57;98196.41;;;9.24;72.20
38912;BME280;28444;48.056;14.408;2024-02-21T10:26:24;98193.19;;;9.33;71.45
38912;BME280;28444;48.056;14.408;2024-02-21T10:28:51;98190.31;;;9.47;72.65
38912;BME280;28444;48.056;14.408;2024-02-21T10:31:26;98190.31;;;9.47;70.09
38912;BME280;28444;48.056;14.408;2024-02-21T10:33:58;98193.72;;;9.32;67.80
38912;BME280;28444;48.056;14.408;2024-02-21T10:36:25;98192.69;;;9.43;66.66
38912;BME280;28444;48.056;14.408;2024-02-21T10:38:52;98199.72;;;9.30;65.80
38912;BME280;28444;48.056;14.408;2024-02-21T10:41:22;98195.84;;;9.26;66.73
38912;BME280;28444;48.056;14.408;2024-02-21T10:43:51;98205.53;;;9.27;67.98
38912;BME280;28444;48.056;14.408;2024-02-21T10:46:23;98193.72;;;9.32;70.84
38912;BME280;28444;48.056;14.408;2024-02-21T10:49:07;98186.69;;;9.44;67.03
38912;BME280;28444;48.056;14.408;2024-02-21T10:51:41;98174.31;;;9.51;68.70
38912;BME280;28444;48.056;14.408;2024-02-21T10:56:49;98150.53;;;9.59;68.98
38912;BME280;28444;48.056;14.408;2024-02-21T10:59:17;98147.81;;;9.59;68.83
38912;BME280;28444;48.056;14.408;2024-02-21T11:01:44;98142.72;;;9.63;70.50
38912;BME280;28444;48.056;14.408;2024-02-21T11:04:11;98135.06;;;9.69;70.95
38912;BME280;28444;48.056;14.408;2024-02-21T11:06:40;98141.13;;;9.83;68.28
38912;BME280;28444;48.056;14.408;2024-02-21T11:09:11;98132.56;;;9.86;63.86
38912;BME280;28444;48.056;14.408;2024-02-21T11:11:43;98124.75;;;9.91;62.63
38912;BME280;28444;48.056;14.408;2024-02-21T11:16:38;98111.63;;;9.89;64.88
38912;BME280;28444;48.056;14.408;2024-02-21T11:21:34;98083.41;;;10.02;63.70
38912;BME280;28444;48.056;14.408;2024-02-21T11:24:03;98072.09;;;10.05;64.99
38912;BME280;28444;48.056;14.408;2024-02-21T11:26:30;98075.75;;;10.23;65.58
38912;BME280;28444;48.056;14.408;2024-02-21T11:29:01;98073.06;;;10.39;63.08
38912;BME280;28444;48.056;14.408;2024-02-21T11:31:40;98083.94;;;10.23;61.72
38912;BME280;28444;48.056;14.408;2024-02-21T11:34:09;98076.53;;;10.31;64.42
38912;BME280;28444;48.056;14.408;2024-02-21T11:36:36;98072.50;;;10.40;62.58
38912;BME280;28444;48.056;14.408;2024-02-21T11:39:12;98073.78;;;10.47;64.14
38912;BME280;28444;48.056;14.408;2024-02-21T11:41:38;98076.66;;;10.49;62.08
38912;BME280;28444;48.056;14.408;2024-02-21T11:44:05;98081.78;;;10.45;63.24
38912;BME280;28444;48.056;14.408;2024-02-21T11:46:32;98074.28;;;10.53;61.64
38912;BME280;28444;48.056;14.408;2024-02-21T11:49:00;98071.22;;;10.26;61.37
38912;BME280;28444;48.056;14.408;2024-02-21T11:51:28;98067.03;;;10.32;61.35
38912;BME280;28444;48.056;14.408;2024-02-21T11:53:56;98063.22;;;10.43;62.86
38912;BME280;28444;48.056;14.408;2024-02-21T11:56:27;98058.84;;;10.40;64.54
38912;BME280;28444;48.056;14.408;2024-02-21T11:58:54;98050.81;;;10.34;62.84
38912;BME280;28444;48.056;14.408;2024-02-21T12:01:21;98038.22;;;10.47;65.01
38912;BME280;28444;48.056;14.408;2024-02-21T12:03:48;98048.78;;;10.12;61.71
38912;BME280;28444;48.056;14.408;2024-02-21T12:06:16;98047.53;;;10.13;65.89
38912;BME280;28444;48.056;14.408;2024-02-21T12:08:48;98038.25;;;10.31;65.80
38912;BME280;28444;48.056;14.408;2024-02-21T12:11:22;98035.50;;;10.39;66.53
38912;BME280;28444;48.056;14.408;2024-02-21T12:13:59;98030.44;;;10.28;68.03
38912;BME280;28444;48.056;14.408;2024-02-21T12:16:27;98024.41;;;10.29;65.92
38912;BME280;28444;48.056;14.408;2024-02-21T12:18:59;98020.75;;;10.19;66.33
38912;BME280;28444;48.056;14.408;2024-02-21T12:21:27;98024.56;;;10.16;67.00
38912;BME280;28444;48.056;14.408;2024-02-21T12:23:56;98006.19;;;10.01;68.27
38912;BME280;28444;48.056;14.408;2024-02-21T12:26:22;98013.28;;;9.97;67.00
38912;BME280;28444;48.056;14.408;2024-02-21T12:28:49;98013.47;;;9.83;68.74
38912;BME280;28444;48.056;14.408;2024-02-21T12:31:16;98016.19;;;9.76;68.18
38912;BME280;28444;48.056;14.408;2024-02-21T12:33:43;97999.44;;;9.79;67.10
38912;BME280;28444;48.056;14.408;2024-02-21T12:36:10;97995.06;;;9.69;69.08
38912;BME280;28444;48.056;14.408;2024-02-21T12:38:37;97984.69;;;9.82;68.67
38912;BME280;28444;48.056;14.408;2024-02-21T12:41:04;98000.00;;;9.85;67.69
38912;BME280;28444;48.056;14.408;2024-02-21T12:43:30;97991.25;;;9.87;66.78
38912;BME280;28444;48.056;14.408;2024-02-21T12:45:57;97990.53;;;9.86;65.00
38912;BME280;28444;48.056;14.408;2024-02-21T12:48:23;97985.97;;;9.81;65.20
38912;BME280;28444;48.056;14.408;2024-02-21T12:50:50;97977.03;;;9.96;65.71
38912;BME280;28444;48.056;14.408;2024-02-21T12:53:20;97976.84;;;10.02;66.70
38912;BME280;28444;48.056;14.408;2024-02-21T12:55:58;97971.19;;;10.07;64.15
38912;BME280;28444;48.056;14.408;2024-02-21T12:58:25;97970.09;;;10.18;67.19
38912;BME280;28444;48.056;14.408;2024-02-21T13:00:52;97960.44;;;10.17;65.05
38912;BME280;28444;48.056;14.408;2024-02-21T13:03:19;97956.25;;;10.16;65.69
38912;BME280;28444;48.056;14.408;2024-02-21T13:05:48;97937.47;;;10.12;65.61
38912;BME280;28444;48.056;14.408;2024-02-21T13:08:14;97934.78;;;9.97;64.49
38912;BME280;28444;48.056;14.408;2024-02-21T13:10:41;97925.50;;;10.00;66.44
38912;BME280;28444;48.056;14.408;2024-02-21T13:13:10;97922.75;;;10.00;66.71
38912;BME280;28444;48.056;14.408;2024-02-21T13:15:38;97922.41;;;9.96;66.94
38912;BME280;28444;48.056;14.408;2024-02-21T13:18:09;97911.81;;;10.08;68.20
38912;BME280;28444;48.056;14.408;2024-02-21T13:20:36;97906.34;;;10.08;66.61
38912;BME280;28444;48.056;14.408;2024-02-21T13:23:03;97899.59;;;10.09;67.44
38912;BME280;28444;48.056;14.408;2024-02-21T13:25:30;97891.03;;;10.12;68.92